createdAt,value
2022-11-07T00:04:10.212Z,1.00
2022-11-07T00:09:01.462Z,1.13
2022-11-07T00:13:51.139Z,1.63
2022-11-07T00:18:41.016Z,1.30
2022-11-07T00:23:33.589Z,1.85
2022-11-07T00:33:13.030Z,1.05
2022-11-07T00:38:02.883Z,1.27
2022-11-07T00:42:55.731Z,0.77
2022-11-07T00:47:45.342Z,0.65
2022-11-07T00:52:35.514Z,0.90
2022-11-07T00:57:25.128Z,0.50
2022-11-07T01:02:18.069Z,0.50
2022-11-07T01:07:07.799Z,0.63
2022-11-07T01:11:57.444Z,0.80
2022-11-07T01:16:47.706Z,0.70
2022-11-07T01:21:41.836Z,0.45
2022-11-07T01:26:31.551Z,0.60
2022-11-07T01:31:21.399Z,0.70
2022-11-07T01:36:13.550Z,0.80
2022-11-07T01:41:18.382Z,0.80
2022-11-07T01:46:08.073Z,1.25
2022-11-07T01:50:59.238Z,1.27
2022-11-07T01:55:48.978Z,0.70
2022-11-07T02:00:41.718Z,0.82
2022-11-07T02:05:38.822Z,0.88
2022-11-07T02:10:29.931Z,1.42
2022-11-07T02:15:19.982Z,1.85
2022-11-07T02:20:14.153Z,0.73
2022-11-07T02:25:10.937Z,1.10
2022-11-07T02:30:05.336Z,0.80
2022-11-07T02:35:02.315Z,1.00
2022-11-07T02:39:53.215Z,1.00
2022-11-07T02:44:45.747Z,1.33
2022-11-07T02:54:25.313Z,0.65
2022-11-07T02:59:15.138Z,0.70
2022-11-07T03:04:07.729Z,0.77
2022-11-07T03:13:47.384Z,0.80
2022-11-07T03:18:37.873Z,0.70
2022-11-07T03:23:30.350Z,1.23
2022-11-07T03:28:20.026Z,1.67
2022-11-07T03:33:09.834Z,1.20
2022-11-07T03:37:59.553Z,0.70
2022-11-07T03:42:52.131Z,1.20
2022-11-07T03:47:43.532Z,0.60
2022-11-07T03:52:33.211Z,1.38
2022-11-07T03:57:22.979Z,0.70
2022-11-07T04:02:16.030Z,0.60
2022-11-07T04:07:05.776Z,0.75
2022-11-07T04:12:07.990Z,1.10
2022-11-07T04:17:10.082Z,1.00
2022-11-07T04:22:02.420Z,1.45
2022-11-07T04:27:04.483Z,0.60
2022-11-07T04:31:54.141Z,0.82
2022-11-07T04:36:44.860Z,0.85
2022-11-07T04:41:37.214Z,1.08
2022-11-07T04:46:28.425Z,1.67
2022-11-07T04:51:21.743Z,0.73
2022-11-07T04:56:11.515Z,1.20
2022-11-07T05:01:04.026Z,1.13
2022-11-07T05:10:43.302Z,1.42
2022-11-07T05:15:33.009Z,0.98
2022-11-07T05:20:33.441Z,0.90
2022-11-07T05:25:23.167Z,1.30
2022-11-07T05:30:14.592Z,0.98
2022-11-07T05:35:04.370Z,1.67
2022-11-07T05:39:56.650Z,2.60
2022-11-07T05:44:46.238Z,2.47
2022-11-07T05:49:35.888Z,2.80
2022-11-07T05:54:28.027Z,2.80
2022-11-07T05:59:22.052Z,2.75
2022-11-07T06:04:11.932Z,3.45
2022-11-07T06:09:01.828Z,2.20
2022-11-07T06:13:53.205Z,1.60
2022-11-07T06:18:45.479Z,2.05
2022-11-07T06:23:35.345Z,2.17
2022-11-07T06:28:25.065Z,1.67
2022-11-07T06:33:18.153Z,2.88
2022-11-07T06:38:13.035Z,3.05
2022-11-07T06:43:09.035Z,1.58
2022-11-07T06:47:58.653Z,0.98
2022-11-07T06:52:49.746Z,0.90
2022-11-07T06:57:42.313Z,1.25
2022-11-07T07:07:41.466Z,2.00
2022-11-07T07:12:31.104Z,1.67
2022-11-07T07:17:23.408Z,1.20
2022-11-07T07:22:15.011Z,2.17
2022-11-07T07:27:04.705Z,1.52
2022-11-07T07:31:54.510Z,1.40
2022-11-07T07:36:46.897Z,1.10
2022-11-07T07:41:40.135Z,0.95
2022-11-07T07:46:30.080Z,1.25
2022-11-07T07:51:19.872Z,0.77
2022-11-07T07:56:15.710Z,1.30
2022-11-07T08:01:10.392Z,0.70
2022-11-07T08:06:01.698Z,0.95
2022-11-07T08:10:54.322Z,1.30
2022-11-07T08:20:36.156Z,0.73
2022-11-07T08:25:28.913Z,0.90
2022-11-07T08:30:18.784Z,1.33
2022-11-07T08:35:12.136Z,2.30
2022-11-07T08:40:03.961Z,1.55
2022-11-07T08:44:53.696Z,1.40
2022-11-07T08:49:43.429Z,1.42
2022-11-07T08:54:36.114Z,1.23
2022-11-07T08:59:25.943Z,1.17
2022-11-07T09:04:15.900Z,1.17
2022-11-07T09:09:05.806Z,1.08
2022-11-07T09:13:59.139Z,1.23
2022-11-07T09:18:50.955Z,1.55
2022-11-07T09:23:40.836Z,1.92
2022-11-07T09:28:31.244Z,1.50
2022-11-07T09:33:23.612Z,1.67
2022-11-07T09:43:18.794Z,1.10
2022-11-07T09:48:17.375Z,1.60
2022-11-07T09:53:15.265Z,1.50
2022-11-07T09:58:07.869Z,1.05
2022-11-07T10:07:57.659Z,2.20
2022-11-07T10:18:01.348Z,1.58
2022-11-07T10:23:06.137Z,1.63
2022-11-07T10:28:14.514Z,1.00
2022-11-07T10:33:10.530Z,2.20
2022-11-07T10:38:02.357Z,1.85
2022-11-07T10:42:53.431Z,2.40
2022-11-07T10:47:57.422Z,1.90
2022-11-07T10:52:55.588Z,1.10
2022-11-07T10:57:50.421Z,1.00
2022-11-07T11:02:51.364Z,1.33
2022-11-07T11:07:43.585Z,1.75
2022-11-07T11:12:36.883Z,1.73
2022-11-07T11:17:29.217Z,1.02
2022-11-07T11:22:24.745Z,2.72
2022-11-07T11:27:18.661Z,1.10
2022-11-07T11:32:14.288Z,0.80
2022-11-07T11:37:11.716Z,0.90
2022-11-07T11:42:06.762Z,0.90
